createdAt,value
2022-08-16T00:01:24.555Z,93744.69
2022-08-16T00:03:52.495Z,93746.91
2022-08-16T00:06:19.854Z,93750.63
2022-08-16T00:08:47.806Z,93746.03
2022-08-16T00:11:16.599Z,93753.94
2022-08-16T00:13:54.366Z,93754.63
2022-08-16T00:17:05.423Z,93763.72
2022-08-16T00:19:19.550Z,93764.81
2022-08-16T00:21:53.187Z,93761.94
2022-08-16T00:24:32.492Z,93770.25
2022-08-16T00:26:59.942Z,93772.19
2022-08-16T00:29:30.003Z,93769.88
2022-08-16T00:32:00.955Z,93770.59
2022-08-16T00:34:44.812Z,93768.66
2022-08-16T00:37:20.910Z,93765.56
2022-08-16T00:39:57.502Z,93761.84
2022-08-16T00:42:30.528Z,93759.63
2022-08-16T00:45:29.288Z,93748.25
2022-08-16T00:48:28.834Z,93755.72
2022-08-16T00:50:55.500Z,93745.19
2022-08-16T00:53:22.369Z,93745.19
2022-08-16T00:55:55.234Z,93754.94
2022-08-16T00:58:34.756Z,93759.22
2022-08-16T01:01:02.688Z,93764.56
2022-08-16T01:03:31.681Z,93764.22
2022-08-16T01:06:40.125Z,93774.41
2022-08-16T01:08:53.652Z,93770.66
2022-08-16T01:11:22.337Z,93764.28
2022-08-16T01:13:53.193Z,93771.50
2022-08-16T01:16:25.817Z,93763.44
2022-08-16T01:19:07.530Z,93766.94
2022-08-16T01:21:52.290Z,93773.06
2022-08-16T01:24:51.665Z,93779.16
2022-08-16T01:27:22.344Z,93777.72
2022-08-16T01:30:19.941Z,93777.81
2022-08-16T01:33:01.580Z,93772.63
2022-08-16T01:35:39.677Z,93772.53
2022-08-16T01:38:19.986Z,93776.19
2022-08-16T01:40:55.018Z,93766.94
2022-08-16T01:43:24.532Z,93764.66
2022-08-16T01:45:57.698Z,93774.81
2022-08-16T01:48:29.418Z,93779.66
2022-08-16T01:51:08.509Z,93769.81
2022-08-16T01:53:37.971Z,93763.00
2022-08-16T01:56:25.422Z,93759.09
2022-08-16T01:58:55.371Z,93758.25
2022-08-16T02:01:23.353Z,93753.31
2022-08-16T02:03:53.237Z,93757.16
2022-08-16T02:06:34.659Z,93756.47
2022-08-16T02:09:07.239Z,93769.81
2022-08-16T02:11:47.847Z,93765.75
2022-08-16T02:14:26.251Z,93769.91
2022-08-16T02:17:01.702Z,93768.00
2022-08-16T02:19:59.729Z,93768.78
2022-08-16T02:22:34.356Z,93760.88
2022-08-16T02:25:07.211Z,93764.19
2022-08-16T02:27:36.496Z,93756.66
2022-08-16T02:30:05.894Z,93748.75
2022-08-16T02:32:50.735Z,93749.53
2022-08-16T02:35:22.904Z,93751.72
2022-08-16T02:37:52.701Z,93757.22
2022-08-16T02:40:24.669Z,93754.09
2022-08-16T02:42:54.333Z,93760.03
2022-08-16T02:45:28.021Z,93761.47
2022-08-16T02:48:00.361Z,93748.91
2022-08-16T02:50:54.573Z,93753.50
2022-08-16T02:53:31.046Z,93758.78
2022-08-16T02:55:59.132Z,93756.38
2022-08-16T02:58:28.256Z,93757.03
2022-08-16T03:00:57.835Z,93754.66
2022-08-16T03:04:29.214Z,93744.50
2022-08-16T03:06:41.543Z,93748.72
2022-08-16T03:09:16.430Z,93747.63
2022-08-16T03:11:47.847Z,93741.69
2022-08-16T03:14:21.082Z,93741.69
2022-08-16T03:16:58.694Z,93746.50
2022-08-16T03:19:56.516Z,93743.88
2022-08-16T03:22:29.096Z,93746.97
2022-08-16T03:25:09.055Z,93746.50
2022-08-16T03:27:39.209Z,93739.75
2022-08-16T03:30:17.320Z,93737.22
2022-08-16T03:32:58.413Z,93734.59
2022-08-16T03:35:32.695Z,93736.84
2022-08-16T03:38:33.052Z,93726.34
2022-08-16T03:40:57.728Z,93730.06
2022-08-16T03:43:50.982Z,93727.88
2022-08-16T03:46:48.162Z,93726.34
2022-08-16T03:49:04.828Z,93726.44
2022-08-16T03:51:31.418Z,93714.38
2022-08-16T03:54:04.147Z,93727.19
2022-08-16T03:56:58.040Z,93728.81
2022-08-16T03:59:30.094Z,93735.16
2022-08-16T04:02:00.987Z,93727.94
2022-08-16T04:04:33.504Z,93717.69
2022-08-16T04:07:04.293Z,93730.50
2022-08-16T04:09:38.215Z,93733.81
2022-08-16T04:12:11.320Z,93736.00
2022-08-16T04:14:54.416Z,93737.44
2022-08-16T04:17:21.669Z,93741.19
2022-08-16T04:19:51.700Z,93737.00
2022-08-16T04:22:27.674Z,93733.63
2022-08-16T04:24:59.750Z,93737.53
2022-08-16T04:27:33.108Z,93738.31
2022-08-16T04:30:02.802Z,93735.00
2022-08-16T04:32:31.775Z,93739.13
2022-08-16T04:34:59.512Z,93735.31
2022-08-16T04:37:29.128Z,93741.03
2022-08-16T04:40:10.781Z,93747.47
2022-08-16T04:42:50.466Z,93755.03
2022-08-16T04:45:18.360Z,93749.75
2022-08-16T04:48:05.874Z,93755.53
2022-08-16T04:50:43.474Z,93749.50
2022-08-16T04:53:15.867Z,93754.44
2022-08-16T04:55:44.971Z,93764.63
2022-08-16T04:58:45.225Z,93762.09
2022-08-16T05:01:01.422Z,93767.00
2022-08-16T05:03:30.982Z,93764.47
2022-08-16T05:05:59.825Z,93772.44
2022-08-16T05:08:34.157Z,93775.91
2022-08-16T05:11:16.781Z,93779.00
2022-08-16T05:13:47.539Z,93776.38
2022-08-16T05:16:27.108Z,93777.72
2022-08-16T05:19:05.029Z,93772.03
2022-08-16T05:21:46.405Z,93774.22
2022-08-16T05:24:13.347Z,93764.72
2022-08-16T05:26:40.880Z,93779.66
2022-08-16T05:29:15.167Z,93779.41
2022-08-16T05:31:54.082Z,93780.69
2022-08-16T05:34:22.321Z,93773.88
2022-08-16T05:36:53.012Z,93775.31
2022-08-16T05:39:23.763Z,93777.28
2022-08-16T05:41:53.130Z,93787.22
2022-08-16T05:44:23.958Z,93785.41
2022-08-16T05:46:59.963Z,93783.78
2022-08-16T05:49:39.403Z,93787.66
2022-08-16T05:52:10.872Z,93780.50
2022-08-16T05:54:46.027Z,93794.53
2022-08-16T05:57:15.662Z,93786.63
2022-08-16T05:59:42.512Z,93790.59
2022-08-16T06:02:09.938Z,93789.66
2022-08-16T06:04:37.925Z,93787.97
2022-08-16T06:07:26.695Z,93790.47
2022-08-16T06:10:05.100Z,93797.13
2022-08-16T06:12:34.737Z,93799.84
2022-08-16T06:15:09.947Z,93788.63
2022-08-16T06:17:43.268Z,93795.16
2022-08-16T06:20:24.219Z,93795.91
2022-08-16T06:22:57.751Z,93799.03
2022-08-16T06:25:36.771Z,93792.84
2022-08-16T06:28:09.489Z,93790.00
2022-08-16T06:30:44.063Z,93798.34
2022-08-16T06:33:19.650Z,93791.41
2022-08-16T06:35:55.033Z,93799.13
2022-08-16T06:38:33.696Z,93783.75
2022-08-16T06:41:12.324Z,93795.16
2022-08-16T06:43:41.684Z,93793.34
2022-08-16T06:46:31.698Z,93787.06
2022-08-16T06:49:05.496Z,93795.91
2022-08-16T06:51:46.626Z,93795.66
2022-08-16T06:54:18.926Z,93790.09
2022-08-16T06:56:45.805Z,93791.72
2022-08-16T06:59:14.520Z,93790.00
2022-08-16T07:01:54.085Z,93798.09
2022-08-16T07:04:31.786Z,93797.09
2022-08-16T07:07:03.030Z,93796.91
2022-08-16T07:09:30.795Z,93795.50
2022-08-16T07:12:03.238Z,93800.88
2022-08-16T07:14:33.770Z,93790.81
2022-08-16T07:17:03.578Z,93801.22
2022-08-16T07:20:02.747Z,93815.22
2022-08-16T07:22:37.425Z,93811.03
2022-08-16T07:25:13.858Z,93815.59
2022-08-16T07:27:41.444Z,93796.00
2022-08-16T07:30:38.394Z,93806.47
2022-08-16T07:33:04.551Z,93801.72
2022-08-16T07:35:34.298Z,93808.63
2022-08-16T07:38:01.181Z,93805.31
2022-08-16T07:41:00.780Z,93804.31
2022-08-16T07:43:29.751Z,93807.41
2022-08-16T07:46:01.570Z,93798.75
2022-08-16T07:48:31.206Z,93803.78
2022-08-16T07:51:00.318Z,93808.13
2022-08-16T07:53:30.816Z,93813.09
2022-08-16T07:56:00.559Z,93816.16
2022-08-16T07:58:36.198Z,93810.94
2022-08-16T08:01:10.318Z,93806.13
2022-08-16T08:03:48.217Z,93802.44
2022-08-16T08:06:19.670Z,93814.63
2022-08-16T08:08:50.541Z,93812.84
2022-08-16T08:11:21.528Z,93813.66
2022-08-16T08:13:50.579Z,93813.75
2022-08-16T08:16:19.945Z,93821.44
2022-08-16T08:18:49.988Z,93819.19
2022-08-16T08:21:27.330Z,93817.69
2022-08-16T08:23:57.720Z,93834.44
2022-08-16T08:26:25.267Z,93827.66
2022-08-16T08:28:52.647Z,93829.22
2022-08-16T08:31:21.410Z,93831.56
2022-08-16T08:33:51.492Z,93831.25
2022-08-16T08:36:33.592Z,93837.78
2022-08-16T08:39:12.509Z,93826.44
2022-08-16T08:41:42.542Z,93831.75
2022-08-16T08:44:29.854Z,93830.25
2022-08-16T08:47:09.254Z,93835.94
2022-08-16T08:49:45.972Z,93839.03
2022-08-16T08:52:34.996Z,93843.22
2022-08-16T08:55:11.003Z,93842.84
2022-08-16T08:57:45.638Z,93841.38
2022-08-16T09:00:26.873Z,93844.06
2022-08-16T09:02:58.612Z,93837.66
2022-08-16T09:05:35.837Z,93839.63
2022-08-16T09:08:05.971Z,93841.91
2022-08-16T09:11:07.378Z,93843.78
2022-08-16T09:13:36.025Z,93848.00
2022-08-16T09:16:03.360Z,93840.03
2022-08-16T09:18:35.416Z,93843.44
2022-08-16T09:21:07.138Z,93843.00
2022-08-16T09:23:37.561Z,93839.56
2022-08-16T09:26:44.844Z,93833.50
2022-08-16T09:29:16.242Z,93835.34
2022-08-16T09:31:42.068Z,93830.38
2022-08-16T09:34:10.451Z,93838.81
2022-08-16T09:36:37.519Z,93840.75
2022-08-16T09:39:16.270Z,93845.72
2022-08-16T09:41:53.183Z,93846.47
2022-08-16T09:45:12.314Z,93830.91
2022-08-16T09:47:11.038Z,93838.88
2022-08-16T09:49:41.006Z,93833.16
2022-08-16T09:52:10.051Z,93838.47
2022-08-16T09:54:37.967Z,93832.00
2022-08-16T09:57:05.010Z,93831.25
2022-08-16T09:59:38.607Z,93832.00
2022-08-16T10:02:27.178Z,93819.47
2022-08-16T10:04:57.298Z,93816.75
2022-08-16T10:07:38.362Z,93811.31
2022-08-16T10:10:19.203Z,93816.56
2022-08-16T10:13:12.312Z,93819.63
2022-08-16T10:15:43.746Z,93821.19
2022-08-16T10:19:00.304Z,93830.00
2022-08-16T10:21:09.469Z,93827.41
2022-08-16T10:23:36.683Z,93830.47
2022-08-16T10:27:20.626Z,93825.91
2022-08-16T10:28:51.880Z,93827.03
2022-08-16T10:31:44.317Z,93828.94
2022-08-16T10:34:05.790Z,93832.72
2022-08-16T10:36:54.199Z,93833.34
2022-08-16T10:39:21.218Z,93831.97
2022-08-16T10:41:48.019Z,93832.63
2022-08-16T10:44:15.172Z,93835.34
2022-08-16T10:46:44.327Z,93830.50
2022-08-16T10:49:16.832Z,93840.88
2022-08-16T10:52:01.405Z,93839.69
2022-08-16T10:54:31.005Z,93852.19
2022-08-16T10:57:00.543Z,93845.00
2022-08-16T10:59:39.147Z,93840.88
2022-08-16T11:02:57.653Z,93839.84
2022-08-16T11:05:06.771Z,93838.00
2022-08-16T11:07:42.975Z,93843.69
2022-08-16T11:10:20.411Z,93850.53
2022-08-16T11:12:47.779Z,93853.13
2022-08-16T11:15:20.318Z,93843.00
2022-08-16T11:18:36.654Z,93843.34
2022-08-16T11:20:41.235Z,93842.53
2022-08-16T11:23:09.907Z,93845.75
2022-08-16T11:31:11.106Z,93853.25
2022-08-16T11:33:55.625Z,93852.22
2022-08-16T11:36:27.966Z,93849.38
2022-08-16T11:39:00.165Z,93859.03
2022-08-16T11:41:30.813Z,93849.13
2022-08-16T11:43:59.590Z,93848.66
2022-08-16T11:46:43.415Z,93848.78
2022-08-16T11:49:14.121Z,93841.16
2022-08-16T11:51:44.091Z,93833.31
2022-08-16T11:54:20.755Z,93835.69
2022-08-16T11:56:52.647Z,93830.00
2022-08-16T11:59:28.468Z,93828.81
2022-08-16T12:01:59.910Z,93837.38
2022-08-16T12:04:31.700Z,93830.78
2022-08-16T12:06:58.774Z,93827.16
2022-08-16T12:09:29.512Z,93822.38
2022-08-16T12:11:58.494Z,93833.00
2022-08-16T12:14:35.297Z,93849.09
2022-08-16T12:17:03.578Z,93835.78
2022-08-16T12:19:35.462Z,93834.03
2022-08-16T12:22:05.618Z,93834.66
2022-08-16T12:24:45.378Z,93837.47
2022-08-16T12:27:14.602Z,93827.75
2022-08-16T12:29:42.004Z,93827.75
2022-08-16T12:32:35.748Z,93820.75
2022-08-16T12:34:55.370Z,93825.97
2022-08-16T12:37:24.343Z,93824.72
2022-08-16T12:39:58.429Z,93821.41
2022-08-16T12:42:35.481Z,93825.88
2022-08-16T12:45:06.540Z,93823.88
2022-08-16T12:47:53.244Z,93810.22
2022-08-16T12:50:33.006Z,93816.38
2022-08-16T12:53:00.503Z,93810.25
2022-08-16T12:55:33.678Z,93808.84
2022-08-16T12:58:13.537Z,93814.09
2022-08-16T13:00:42.181Z,93812.63
2022-08-16T13:03:09.588Z,93817.47
2022-08-16T13:05:45.143Z,93800.84
2022-08-16T13:08:30.840Z,93811.09
2022-08-16T13:11:00.665Z,93801.03
2022-08-16T13:13:29.557Z,93800.00
2022-08-16T13:16:03.651Z,93800.59
2022-08-16T13:18:34.217Z,93792.50
2022-08-16T13:21:07.738Z,93806.25
2022-08-16T13:23:36.818Z,93795.34
2022-08-16T13:26:10.778Z,93800.81
2022-08-16T13:28:37.387Z,93796.03
2022-08-16T13:31:04.399Z,93803.00
2022-08-16T13:33:37.067Z,93790.72
2022-08-16T13:36:07.276Z,93805.25
2022-08-16T13:38:49.353Z,93797.44
2022-08-16T13:41:16.079Z,93792.56
2022-08-16T13:43:43.033Z,93797.97
2022-08-16T13:46:09.683Z,93792.84
2022-08-16T13:48:44.428Z,93789.56
2022-08-16T13:51:16.715Z,93796.97
2022-08-16T13:53:54.224Z,93795.47
2022-08-16T13:56:25.779Z,93784.13
2022-08-16T13:58:54.735Z,93792.63
2022-08-16T14:01:22.573Z,93786.06
2022-08-16T14:03:50.392Z,93784.69
2022-08-16T14:06:21.675Z,93786.38
2022-08-16T14:08:58.841Z,93780.72
2022-08-16T14:11:33.515Z,93776.00
2022-08-16T14:14:00.444Z,93780.16
2022-08-16T14:16:34.089Z,93777.34
2022-08-16T14:19:02.134Z,93774.81
2022-08-16T14:21:34.988Z,93771.94
2022-08-16T14:24:07.902Z,93766.53
2022-08-16T14:26:43.863Z,93773.16
2022-08-16T14:29:11.137Z,93774.47
2022-08-16T14:31:39.671Z,93777.56
2022-08-16T14:34:07.774Z,93777.69
2022-08-16T14:36:37.897Z,93772.63
2022-08-16T14:39:09.075Z,93771.25
2022-08-16T14:41:36.642Z,93766.97
2022-08-16T14:44:07.040Z,93761.41
2022-08-16T14:46:33.747Z,93768.38
2022-08-16T14:49:01.631Z,93745.28
2022-08-16T14:51:28.854Z,93762.75
2022-08-16T14:53:56.833Z,93764.00
2022-08-16T14:56:38.654Z,93765.25
2022-08-16T14:59:11.058Z,93761.63
2022-08-16T15:01:52.149Z,93756.31
2022-08-16T15:04:39.832Z,93757.88
2022-08-16T15:07:13.976Z,93755.88
2022-08-16T15:10:00.993Z,93754.13
2022-08-16T15:12:33.282Z,93763.19
2022-08-16T15:15:04.535Z,93766.63
2022-08-16T15:17:40.324Z,93759.94
2022-08-16T15:20:08.605Z,93761.94
2022-08-16T15:22:39.355Z,93759.06
2022-08-16T15:25:11.069Z,93753.91
2022-08-16T15:27:42.070Z,93759.03
2022-08-16T15:30:56.739Z,93765.16
2022-08-16T15:33:10.036Z,93769.09
2022-08-16T15:35:38.609Z,93773.06
2022-08-16T15:38:09.101Z,93772.41
2022-08-16T15:40:57.897Z,93769.22
2022-08-16T15:43:33.968Z,93774.56
2022-08-16T15:46:35.768Z,93773.06
2022-08-16T15:49:12.704Z,93761.13
2022-08-16T15:51:41.345Z,93764.16
2022-08-16T15:54:28.961Z,93767.75
2022-08-16T15:56:56.367Z,93764.94
2022-08-16T15:59:27.096Z,93757.81
2022-08-16T16:01:55.973Z,93762.06
2022-08-16T16:04:25.788Z,93766.63
2022-08-16T16:06:55.347Z,93756.59
2022-08-16T16:09:34.608Z,93762.16
2022-08-16T16:12:34.075Z,93770.53
2022-08-16T16:14:53.019Z,93766.56
2022-08-16T16:17:19.645Z,93764.56
2022-08-16T16:19:49.765Z,93766.47
2022-08-16T16:22:21.154Z,93771.56
2022-08-16T16:24:49.214Z,93760.06
2022-08-16T16:27:16.637Z,93762.03
2022-08-16T16:29:46.426Z,93754.81
2022-08-16T16:32:33.226Z,93760.78
2022-08-16T16:35:01.181Z,93756.66
2022-08-16T16:37:27.831Z,93756.25
2022-08-16T16:39:54.656Z,93751.38
2022-08-16T16:42:29.330Z,93752.56
2022-08-16T16:45:01.612Z,93750.19
2022-08-16T16:47:41.444Z,93748.28
2022-08-16T16:50:10.242Z,93749.59
2022-08-16T16:52:44.265Z,93744.09
2022-08-16T16:55:12.864Z,93749.50
2022-08-16T16:57:58.261Z,93752.16
2022-08-16T17:00:29.760Z,93743.25
2022-08-16T17:03:05.670Z,93739.16
2022-08-16T17:05:32.777Z,93744.53
2022-08-16T17:08:01.889Z,93743.38
2022-08-16T17:10:46.434Z,93736.78
2022-08-16T17:13:15.366Z,93750.03
2022-08-16T17:15:42.044Z,93754.09
2022-08-16T17:19:15.349Z,93751.25
2022-08-16T17:20:55.569Z,93751.56
2022-08-16T17:23:23.279Z,93755.31
2022-08-16T17:26:10.697Z,93758.22
2022-08-16T17:28:58.503Z,93763.94
2022-08-16T17:31:34.745Z,93762.88
2022-08-16T17:34:28.843Z,93765.31
2022-08-16T17:36:54.362Z,93762.06
2022-08-16T17:39:21.222Z,93764.66
2022-08-16T17:41:50.821Z,93759.19
2022-08-16T17:44:19.276Z,93766.25
2022-08-16T17:46:52.272Z,93759.91
2022-08-16T17:49:19.692Z,93760.50
2022-08-16T17:51:46.317Z,93760.69
2022-08-16T17:54:22.130Z,93764.41
2022-08-16T17:57:00.752Z,93771.88
2022-08-16T17:59:28.938Z,93772.19
2022-08-16T18:01:56.194Z,93762.03
2022-08-16T18:04:45.251Z,93767.03
2022-08-16T18:07:10.813Z,93762.50
2022-08-16T18:09:40.833Z,93762.53
2022-08-16T18:12:23.976Z,93764.03
2022-08-16T18:15:04.490Z,93762.06
2022-08-16T18:17:31.987Z,93768.78
2022-08-16T18:19:58.603Z,93767.09
2022-08-16T18:22:30.660Z,93770.31
2022-08-16T18:24:58.037Z,93767.50
2022-08-16T18:27:26.786Z,93773.00
2022-08-16T18:29:53.906Z,93774.28
2022-08-16T18:32:24.548Z,93770.94
2022-08-16T18:34:54.449Z,93772.63
2022-08-16T18:37:24.798Z,93767.47
2022-08-16T18:39:51.537Z,93773.31
2022-08-16T18:42:18.343Z,93783.34
2022-08-16T18:44:44.983Z,93785.34
2022-08-16T18:47:11.804Z,93790.41
2022-08-16T18:49:38.839Z,93791.63
2022-08-16T18:52:05.909Z,93796.69
2022-08-16T18:54:33.906Z,93780.44
2022-08-16T18:57:20.475Z,93799.50
2022-08-16T18:59:47.095Z,93795.00
2022-08-16T19:02:57.891Z,93789.38
2022-08-16T19:05:15.174Z,93792.13
2022-08-16T19:07:41.865Z,93806.22
2022-08-16T19:10:09.318Z,93813.53
2022-08-16T19:12:38.071Z,93809.78
2022-08-16T19:15:24.083Z,93813.25
2022-08-16T19:17:50.634Z,93815.94
2022-08-16T19:20:20.685Z,93815.22
2022-08-16T19:23:05.071Z,93807.66
2022-08-16T19:25:47.925Z,93809.59
2022-08-16T19:28:50.732Z,93817.97
2022-08-16T19:31:14.958Z,93811.50
2022-08-16T19:33:53.172Z,93826.69
2022-08-16T19:36:31.245Z,93821.00
2022-08-16T19:39:04.945Z,93825.19
2022-08-16T19:41:34.172Z,93818.31
2022-08-16T19:44:00.772Z,93822.13
2022-08-16T19:46:27.480Z,93825.94
2022-08-16T19:48:54.100Z,93818.31
2022-08-16T19:51:20.694Z,93825.16
2022-08-16T19:53:47.351Z,93829.72
2022-08-16T19:56:13.971Z,93825.94
2022-08-16T19:58:56.187Z,93825.56
2022-08-16T20:01:27.148Z,93833.53
2022-08-16T20:03:53.756Z,93822.13
2022-08-16T20:06:37.594Z,93822.13
2022-08-16T20:09:06.090Z,93824.34
2022-08-16T20:11:33.063Z,93829.25
2022-08-16T20:13:59.673Z,93830.78
2022-08-16T20:16:26.384Z,93824.69
2022-08-16T20:18:53.037Z,93827.34
2022-08-16T20:21:19.779Z,93832.63
2022-08-16T20:23:46.648Z,93831.84
2022-08-16T20:26:13.326Z,93833.38
2022-08-16T20:28:53.492Z,93841.69
2022-08-16T20:31:21.254Z,93838.28
2022-08-16T20:33:47.921Z,93836.38
2022-08-16T20:36:16.037Z,93838.63
2022-08-16T20:38:47.020Z,93836.31
2022-08-16T20:41:14.732Z,93840.88
2022-08-16T20:43:41.354Z,93842.34
2022-08-16T20:46:07.991Z,93846.47
2022-08-16T20:48:34.635Z,93834.25
2022-08-16T20:51:01.291Z,93840.69
2022-08-16T20:53:27.953Z,93839.91
2022-08-16T20:55:54.608Z,93838.34
2022-08-16T20:58:21.192Z,93837.97
2022-08-16T21:00:48.012Z,93848.16
2022-08-16T21:03:14.823Z,93852.28
2022-08-16T21:05:42.023Z,93857.06
2022-08-16T21:08:52.714Z,93842.50
2022-08-16T21:10:59.282Z,93843.91
2022-08-16T21:13:26.060Z,93843.78
2022-08-16T21:15:53.063Z,93845.28
2022-08-16T21:18:19.685Z,93853.25
2022-08-16T21:20:46.434Z,93852.50
2022-08-16T21:23:13.126Z,93855.88
2022-08-16T21:25:58.332Z,93855.88
2022-08-16T21:28:39.907Z,93849.38
2022-08-16T21:31:13.112Z,93856.13
2022-08-16T21:33:40.267Z,93854.16
2022-08-16T21:36:07.148Z,93855.69
2022-08-16T21:38:33.736Z,93863.25
2022-08-16T21:41:01.751Z,93852.56
2022-08-16T21:43:32.138Z,93859.41
2022-08-16T21:46:03.592Z,93859.00
2022-08-16T21:48:34.451Z,93864.25
2022-08-16T21:51:08.838Z,93864.84
2022-08-16T21:53:37.809Z,93869.56
2022-08-16T21:56:05.318Z,93868.28
2022-08-16T21:58:32.369Z,93872.38
2022-08-16T22:00:59.673Z,93880.19
2022-08-16T22:03:26.328Z,93880.13
2022-08-16T22:06:11.758Z,93871.34
2022-08-16T22:08:49.082Z,93884.25
2022-08-16T22:11:20.510Z,93878.19
2022-08-16T22:13:52.799Z,93869.13
2022-08-16T22:16:29.943Z,93873.66
2022-08-16T22:18:56.693Z,93866.06
2022-08-16T22:21:23.389Z,93876.66
2022-08-16T22:23:57.199Z,93875.84
2022-08-16T22:26:31.869Z,93871.28
2022-08-16T22:29:00.831Z,93878.03
2022-08-16T22:31:27.802Z,93881.03
2022-08-16T22:33:54.934Z,93879.53
2022-08-16T22:36:21.542Z,93872.38
2022-08-16T22:38:55.896Z,93871.66
2022-08-16T22:41:24.239Z,93871.34
2022-08-16T22:43:50.851Z,93872.13
2022-08-16T22:46:18.700Z,93858.19
2022-08-16T22:48:45.782Z,93866.63
2022-08-16T22:51:12.412Z,93868.94
2022-08-16T22:53:39.067Z,93876.56
2022-08-16T22:56:05.882Z,93877.03
2022-08-16T22:58:36.708Z,93876.31
2022-08-16T23:01:06.442Z,93874.81
2022-08-16T23:03:33.383Z,93873.34
2022-08-16T23:06:02.891Z,93868.03
2022-08-16T23:08:38.555Z,93868.09
2022-08-16T23:11:13.294Z,93874.88
2022-08-16T23:13:53.034Z,93875.16
2022-08-16T23:16:33.810Z,93865.53
2022-08-16T23:19:09.822Z,93876.03
2022-08-16T23:21:39.050Z,93872.13
2022-08-16T23:24:07.274Z,93873.47
2022-08-16T23:26:43.883Z,93868.31
2022-08-16T23:29:24.085Z,93870.81
2022-08-16T23:31:56.276Z,93864.53
2022-08-16T23:34:23.873Z,93860.56
2022-08-16T23:36:50.526Z,93862.72
2022-08-16T23:39:17.154Z,93860.31
2022-08-16T23:41:44.502Z,93862.03
2022-08-16T23:44:55.408Z,93853.56
2022-08-16T23:46:57.719Z,93857.59
2022-08-16T23:49:57.261Z,93848.47
2022-08-16T23:52:11.220Z,93843.31
2022-08-16T23:54:37.836Z,93851.94
2022-08-16T23:57:05.040Z,93844.38
2022-08-16T23:59:36.727Z,93841.78
